Time;durP1;ratioP1;P1;durP2;ratioP2;P2;SDS_P1;SDS_P2;PMS_P1;PMS_P2;Temp;Humidity;BMP_temperature;BMP_pressure;BME280_temperature;BME280_humidity;BME280_pressure;Samples;Min_cycle;Max_cycle;Signal;HPM_P1;HPM_P2
2021/06/29 00:00:40;;;;;;;11.85;6.35;;;;;;;;;;5050080;28;20040;-70
2021/06/29 00:03:08;;;;;;;14.02;6.57;;;;;;;;;;5052900;28;20043;-70
2021/06/29 00:05:36;;;;;;;10.00;5.68;;;;;;;;;;5052041;28;20119;-70
2021/06/29 00:08:05;;;;;;;11.35;6.38;;;;;;;;;;5045823;28;20046;-71
2021/06/29 00:10:33;;;;;;;19.38;7.30;;;;;;;;;;5069918;28;20119;-70
2021/06/29 00:13:00;;;;;;;12.50;6.40;;;;;;;;;;5068938;28;20051;-71
2021/06/29 00:15:31;;;;;;;16.20;7.13;;;;;;;;;;5068167;28;20374;-71
2021/06/29 00:17:58;;;;;;;11.68;6.90;;;;;;;;;;5068148;28;20112;-70
2021/06/29 00:20:26;;;;;;;18.13;8.05;;;;;;;;;;5071047;28;20044;-70
2021/06/29 00:22:53;;;;;;;16.55;9.02;;;;;;;;;;5066943;28;20461;-70
2021/06/29 00:25:20;;;;;;;13.43;8.73;;;;;;;;;;5067699;28;20052;-70
2021/06/29 00:27:47;;;;;;;19.38;9.27;;;;;;;;;;5075025;28;20032;-70
2021/06/29 00:30:16;;;;;;;13.52;8.40;;;;;;;;;;5062615;28;20397;-69
2021/06/29 00:32:44;;;;;;;16.88;8.70;;;;;;;;;;5070569;28;20067;-69
2021/06/29 00:35:12;;;;;;;23.27;9.07;;;;;;;;;;5071892;28;20370;-70
2021/06/29 00:37:39;;;;;;;24.52;9.70;;;;;;;;;;5071207;28;20524;-70
2021/06/29 00:40:07;;;;;;;21.27;9.93;;;;;;;;;;5065435;28;20481;-71
2021/06/29 00:42:34;;;;;;;21.35;10.15;;;;;;;;;;5044206;28;20041;-72
2021/06/29 00:45:01;;;;;;;17.60;9.15;;;;;;;;;;5068793;28;20060;-71
2021/06/29 00:47:29;;;;;;;19.50;8.35;;;;;;;;;;5068577;28;20091;-71
2021/06/29 00:49:56;;;;;;;17.75;9.95;;;;;;;;;;5066271;28;20365;-71
2021/06/29 00:52:23;;;;;;;20.45;10.20;;;;;;;;;;5068281;28;20040;-71
2021/06/29 00:54:51;;;;;;;22.00;9.50;;;;;;;;;;5070070;28;20032;-71
2021/06/29 00:57:18;;;;;;;21.25;9.55;;;;;;;;;;5066297;28;20025;-72
2021/06/29 00:59:45;;;;;;;20.63;8.48;;;;;;;;;;5065799;28;20155;-73
2021/06/29 01:02:13;;;;;;;22.08;10.05;;;;;;;;;;5056063;28;20047;-69
2021/06/29 01:04:42;;;;;;;15.23;7.68;;;;;;;;;;5068490;28;20048;-69
2021/06/29 01:07:13;;;;;;;23.15;9.20;;;;;;;;;;5071624;28;20032;-69
2021/06/29 01:09:40;;;;;;;13.98;8.63;;;;;;;;;;5059027;28;20477;-69
2021/06/29 01:12:08;;;;;;;20.35;9.20;;;;;;;;;;5062370;28;20035;-69
2021/06/29 01:14:35;;;;;;;17.27;8.98;;;;;;;;;;5048510;28;20032;-70
2021/06/29 01:17:04;;;;;;;16.50;8.57;;;;;;;;;;5065481;28;20036;-69
2021/06/29 01:19:44;;;;;;;17.48;9.23;;;;;;;;;;5064870;28;20036;-70
2021/06/29 01:22:12;;;;;;;21.20;8.50;;;;;;;;;;5066244;28;20036;-70
2021/06/29 01:24:41;;;;;;;15.27;8.30;;;;;;;;;;5067148;28;20084;-69
2021/06/29 01:30:59;;;;;;;19.33;8.50;;;;;;;;;;5067114;28;20045;-70
2021/06/29 01:32:38;;;;;;;18.73;8.45;;;;;;;;;;5059771;28;20446;-70
2021/06/29 01:35:08;;;;;;;17.77;9.02;;;;;;;;;;5047973;28;20044;-70
2021/06/29 01:37:36;;;;;;;20.30;11.10;;;;;;;;;;5057381;28;20473;-70
2021/06/29 01:40:18;;;;;;;20.05;9.80;;;;;;;;;;5069254;28;20119;-70
2021/06/29 01:42:50;;;;;;;26.65;11.85;;;;;;;;;;5069973;28;20055;-70
2021/06/29 01:45:17;;;;;;;19.42;9.73;;;;;;;;;;5066246;28;20033;-70
2021/06/29 01:50:15;;;;;;;20.73;9.55;;;;;;;;;;5066533;28;20455;-70
2021/06/29 01:52:42;;;;;;;22.45;11.00;;;;;;;;;;5057721;28;20138;-70
2021/06/29 01:55:09;;;;;;;21.50;9.52;;;;;;;;;;5079025;28;20025;-69
2021/06/29 01:57:42;;;;;;;16.80;8.90;;;;;;;;;;5070616;28;20033;-70
2021/06/29 02:00:14;;;;;;;23.98;10.63;;;;;;;;;;5086514;28;20043;-69
2021/06/29 02:02:46;;;;;;;18.95;10.98;;;;;;;;;;5074513;28;20044;-69
2021/06/29 02:05:13;;;;;;;23.08;11.30;;;;;;;;;;5076917;28;20024;-69
2021/06/29 02:07:40;;;;;;;18.33;9.85;;;;;;;;;;5056267;28;20413;-69
2021/06/29 02:10:08;;;;;;;20.80;10.48;;;;;;;;;;5072472;28;20041;-69
2021/06/29 02:12:35;;;;;;;15.60;9.27;;;;;;;;;;5057168;28;20037;-69
2021/06/29 02:15:02;;;;;;;14.65;9.50;;;;;;;;;;5082203;28;20053;-69
2021/06/29 02:17:29;;;;;;;18.50;9.45;;;;;;;;;;5092983;28;20141;-69
2021/06/29 02:19:56;;;;;;;26.42;16.17;;;;;;;;;;5084526;28;20124;-69
2021/06/29 02:22:24;;;;;;;10.88;6.93;;;;;;;;;;5079692;28;20040;-69
2021/06/29 02:24:51;;;;;;;12.00;7.53;;;;;;;;;;5084105;28;20042;-68
2021/06/29 02:27:18;;;;;;;12.70;6.85;;;;;;;;;;5065049;28;20029;-69
2021/06/29 02:29:45;;;;;;;13.60;8.10;;;;;;;;;;5067511;28;20039;-69
2021/06/29 02:32:12;;;;;;;12.40;7.10;;;;;;;;;;5075862;28;20043;-69
2021/06/29 02:34:39;;;;;;;13.63;6.43;;;;;;;;;;5080898;28;20028;-69
2021/06/29 02:37:06;;;;;;;13.15;6.50;;;;;;;;;;5085684;28;20040;-69
2021/06/29 02:39:34;;;;;;;9.88;5.88;;;;;;;;;;5078384;28;20045;-69
2021/06/29 02:42:01;;;;;;;12.60;5.93;;;;;;;;;;5075037;28;20393;-69
2021/06/29 02:44:30;;;;;;;10.95;4.47;;;;;;;;;;5062111;28;20036;-69
2021/06/29 02:46:57;;;;;;;7.95;3.90;;;;;;;;;;5070727;28;20409;-69
2021/06/29 02:49:24;;;;;;;10.05;3.75;;;;;;;;;;5056389;28;20416;-69
2021/06/29 02:51:51;;;;;;;7.07;3.63;;;;;;;;;;5073380;28;20024;-69
2021/06/29 02:54:18;;;;;;;6.97;3.63;;;;;;;;;;5073908;28;20033;-69
2021/06/29 02:56:45;;;;;;;6.82;3.10;;;;;;;;;;5073509;28;20483;-69
2021/06/29 02:59:14;;;;;;;7.53;3.60;;;;;;;;;;5052760;28;20048;-69
2021/06/29 03:01:42;;;;;;;11.60;3.97;;;;;;;;;;5072050;28;20108;-69
2021/06/29 03:04:10;;;;;;;5.97;3.13;;;;;;;;;;5067815;28;20493;-69
2021/06/29 03:06:37;;;;;;;6.53;3.63;;;;;;;;;;5068564;28;20043;-69
2021/06/29 03:09:05;;;;;;;5.45;3.20;;;;;;;;;;5085563;28;20058;-69
2021/06/29 03:11:32;;;;;;;6.50;3.47;;;;;;;;;;5086636;28;20032;-69
2021/06/29 03:14:00;;;;;;;6.93;3.63;;;;;;;;;;5070708;28;20036;-68
2021/06/29 03:16:27;;;;;;;5.75;2.90;;;;;;;;;;5051170;28;20161;-68
2021/06/29 03:18:54;;;;;;;5.75;2.40;;;;;;;;;;5067023;28;20396;-68
2021/06/29 03:21:23;;;;;;;5.10;2.55;;;;;;;;;;5063260;28;20399;-68
2021/06/29 03:23:50;;;;;;;6.10;2.65;;;;;;;;;;5068991;28;20111;-68
2021/06/29 03:26:17;;;;;;;6.10;3.03;;;;;;;;;;5069552;28;20457;-68
2021/06/29 03:28:44;;;;;;;6.45;2.63;;;;;;;;;;5071672;28;20024;-68
2021/06/29 03:31:12;;;;;;;3.92;2.00;;;;;;;;;;5071763;28;20097;-68
2021/06/29 03:33:39;;;;;;;5.65;1.30;;;;;;;;;;5071799;28;20041;-68
2021/06/29 03:36:06;;;;;;;4.47;1.70;;;;;;;;;;5090349;28;20032;-68
2021/06/29 03:38:33;;;;;;;9.70;3.30;;;;;;;;;;5068989;28;20048;-68
2021/06/29 03:41:01;;;;;;;3.30;2.45;;;;;;;;;;5071643;28;20511;-69
2021/06/29 03:43:28;;;;;;;5.07;2.08;;;;;;;;;;5072661;28;20101;-68
2021/06/29 03:46:14;;;;;;;6.53;2.00;;;;;;;;;;5069843;28;20139;-68
2021/06/29 03:48:41;;;;;;;8.90;2.83;;;;;;;;;;5052034;28;20131;-69
2021/06/29 03:51:08;;;;;;;5.35;2.00;;;;;;;;;;5065284;28;20033;-69
2021/06/29 03:53:35;;;;;;;4.50;2.25;;;;;;;;;;5071126;28;20778;-69
2021/06/29 03:56:02;;;;;;;7.43;2.85;;;;;;;;;;5074763;28;20451;-69
2021/06/29 03:58:29;;;;;;;7.97;3.85;;;;;;;;;;5064358;28;20166;-69
2021/06/29 04:00:57;;;;;;;7.70;2.95;;;;;;;;;;5038093;28;20456;-69
2021/06/29 04:03:24;;;;;;;8.60;4.55;;;;;;;;;;5071544;28;20044;-69
2021/06/29 04:05:51;;;;;;;6.95;3.90;;;;;;;;;;5072753;28;20029;-68
2021/06/29 04:08:18;;;;;;;6.03;2.75;;;;;;;;;;5073192;28;20032;-68
2021/06/29 04:10:45;;;;;;;7.57;2.47;;;;;;;;;;5067813;28;20453;-68
2021/06/29 04:13:12;;;;;;;8.13;3.40;;;;;;;;;;5064250;28;20032;-69
2021/06/29 04:15:39;;;;;;;11.18;5.15;;;;;;;;;;5040661;28;20056;-69
2021/06/29 04:18:10;;;;;;;11.70;4.97;;;;;;;;;;5065913;28;20089;-69
2021/06/29 04:20:37;;;;;;;13.88;5.45;;;;;;;;;;5066677;28;20033;-69
2021/06/29 04:23:04;;;;;;;15.98;5.68;;;;;;;;;;5049059;28;20489;-69
2021/06/29 04:25:31;;;;;;;8.43;5.30;;;;;;;;;;5061056;28;20036;-68
2021/06/29 04:27:58;;;;;;;11.32;5.53;;;;;;;;;;5072654;28;20045;-68
2021/06/29 04:30:25;;;;;;;10.88;5.07;;;;;;;;;;5069786;28;20037;-69
2021/06/29 04:32:53;;;;;;;13.10;6.47;;;;;;;;;;5069344;28;20404;-69
2021/06/29 04:35:20;;;;;;;15.52;6.03;;;;;;;;;;5053060;28;20105;-69
2021/06/29 04:37:47;;;;;;;15.32;5.75;;;;;;;;;;5053298;28;20033;-69
2021/06/29 04:40:14;;;;;;;14.38;6.57;;;;;;;;;;5061534;28;20036;-69
2021/06/29 04:42:42;;;;;;;13.27;6.88;;;;;;;;;;5060893;28;20041;-69
2021/06/29 04:45:10;;;;;;;11.85;6.30;;;;;;;;;;5063971;28;20419;-69
2021/06/29 04:47:44;;;;;;;12.45;5.35;;;;;;;;;;5061348;28;20094;-69
2021/06/29 04:50:11;;;;;;;12.27;5.60;;;;;;;;;;5035815;28;20037;-69
2021/06/29 04:52:39;;;;;;;12.27;5.80;;;;;;;;;;5032085;28;20040;-68
2021/06/29 04:55:06;;;;;;;11.23;5.45;;;;;;;;;;5048041;28;20703;-69
2021/06/29 04:57:36;;;;;;;12.10;5.95;;;;;;;;;;5033687;28;20094;-69
2021/06/29 05:00:07;;;;;;;12.98;5.22;;;;;;;;;;5056042;28;20036;-70
2021/06/29 05:02:34;;;;;;;15.27;7.35;;;;;;;;;;5054534;28;20037;-72
2021/06/29 05:05:02;;;;;;;16.90;7.40;;;;;;;;;;5053396;28;20107;-73
2021/06/29 05:07:29;;;;;;;20.15;7.95;;;;;;;;;;5050541;28;20033;-73
2021/06/29 05:09:56;;;;;;;15.18;7.18;;;;;;;;;;5049028;28;20039;-74
2021/06/29 05:12:23;;;;;;;11.98;6.47;;;;;;;;;;5059350;28;20032;-73
2021/06/29 05:14:50;;;;;;;16.83;7.25;;;;;;;;;;5035350;28;20371;-73
2021/06/29 05:17:17;;;;;;;14.98;8.10;;;;;;;;;;5033774;28;20034;-73
2021/06/29 05:19:44;;;;;;;12.95;7.05;;;;;;;;;;5045958;28;20052;-73
2021/06/29 05:22:12;;;;;;;15.90;7.05;;;;;;;;;;5042438;28;20029;-73
2021/06/29 05:24:39;;;;;;;15.85;6.38;;;;;;;;;;5051638;28;20037;-72
2021/06/29 05:27:06;;;;;;;14.43;6.93;;;;;;;;;;5053019;28;20039;-71
2021/06/29 05:29:33;;;;;;;19.33;6.43;;;;;;;;;;5064377;28;20052;-72
2021/06/29 05:32:00;;;;;;;15.75;7.20;;;;;;;;;;5039192;28;20128;-72
2021/06/29 05:34:28;;;;;;;11.82;6.25;;;;;;;;;;5050474;28;20107;-71
2021/06/29 05:36:55;;;;;;;11.50;5.45;;;;;;;;;;5051571;28;20378;-72
2021/06/29 05:39:22;;;;;;;14.93;6.90;;;;;;;;;;5049233;28;20104;-71
2021/06/29 05:41:49;;;;;;;16.95;8.02;;;;;;;;;;5063259;28;20064;-70
2021/06/29 05:44:16;;;;;;;14.25;6.93;;;;;;;;;;5057205;28;20060;-70
2021/06/29 05:46:43;;;;;;;15.98;6.80;;;;;;;;;;5043330;28;20091;-71
2021/06/29 05:49:13;;;;;;;13.95;7.07;;;;;;;;;;5061640;28;20080;-71
2021/06/29 05:51:45;;;;;;;13.07;6.05;;;;;;;;;;5077246;28;20056;-72
2021/06/29 05:54:12;;;;;;;16.65;9.40;;;;;;;;;;5076893;28;20033;-71
2021/06/29 05:56:40;;;;;;;13.98;6.85;;;;;;;;;;5059432;28;20037;-71
2021/06/29 05:59:08;;;;;;;12.07;7.55;;;;;;;;;;5077307;28;20067;-71
2021/06/29 06:01:35;;;;;;;13.60;7.05;;;;;;;;;;5058086;28;20033;-70
2021/06/29 06:04:03;;;;;;;12.68;7.35;;;;;;;;;;5084972;28;20055;-70
2021/06/29 06:06:30;;;;;;;14.32;7.05;;;;;;;;;;5072323;28;20099;-71
2021/06/29 06:08:57;;;;;;;12.25;6.93;;;;;;;;;;5060674;28;20039;-71
2021/06/29 06:11:24;;;;;;;17.05;7.00;;;;;;;;;;5064127;28;20409;-71
2021/06/29 06:13:51;;;;;;;18.55;7.30;;;;;;;;;;5103077;28;20489;-71
2021/06/29 06:16:18;;;;;;;12.80;6.82;;;;;;;;;;5057385;28;20086;-71
2021/06/29 06:18:45;;;;;;;14.45;7.15;;;;;;;;;;5078886;28;20032;-69
2021/06/29 06:21:13;;;;;;;11.27;7.25;;;;;;;;;;5078403;28;20032;-69
2021/06/29 06:23:40;;;;;;;14.75;7.00;;;;;;;;;;5057154;28;20527;-70
2021/06/29 06:26:07;;;;;;;11.38;6.15;;;;;;;;;;5057853;28;20040;-72
2021/06/29 06:28:34;;;;;;;12.75;8.07;;;;;;;;;;5053519;28;20405;-70
2021/06/29 06:31:01;;;;;;;8.88;4.90;;;;;;;;;;5074509;28;20041;-71
2021/06/29 06:33:29;;;;;;;9.07;5.40;;;;;;;;;;5074781;28;20035;-70
2021/06/29 06:35:56;;;;;;;13.82;5.18;;;;;;;;;;5074706;28;20033;-71
2021/06/29 06:38:23;;;;;;;11.43;3.78;;;;;;;;;;5083796;28;20089;-70
2021/06/29 06:40:50;;;;;;;9.60;3.45;;;;;;;;;;5088743;28;20049;-70
2021/06/29 06:43:17;;;;;;;9.85;4.28;;;;;;;;;;5071470;28;20085;-71
2021/06/29 06:45:44;;;;;;;10.57;3.90;;;;;;;;;;5082358;28;20190;-70
2021/06/29 06:48:11;;;;;;;15.80;4.05;;;;;;;;;;5081521;28;20045;-70
2021/06/29 06:50:38;;;;;;;9.75;4.40;;;;;;;;;;5082647;28;20477;-71
2021/06/29 06:53:06;;;;;;;8.63;4.78;;;;;;;;;;5074169;28;20469;-71
2021/06/29 06:55:33;;;;;;;9.77;6.50;;;;;;;;;;5074592;28;20036;-71
2021/06/29 06:58:00;;;;;;;17.10;5.18;;;;;;;;;;5054076;28;20044;-71
2021/06/29 07:00:29;;;;;;;12.38;4.38;;;;;;;;;;5046535;28;20032;-71
2021/06/29 07:02:56;;;;;;;7.53;3.58;;;;;;;;;;5074435;28;20060;-70
2021/06/29 07:05:24;;;;;;;13.77;4.75;;;;;;;;;;5057752;28;20044;-70
2021/06/29 07:07:51;;;;;;;12.23;5.30;;;;;;;;;;5071821;28;20538;-70
2021/06/29 07:10:18;;;;;;;8.07;4.43;;;;;;;;;;5075312;28;20040;-70
2021/06/29 07:12:45;;;;;;;13.82;5.68;;;;;;;;;;5063030;28;20120;-70
2021/06/29 07:15:12;;;;;;;13.65;4.88;;;;;;;;;;5079440;28;20047;-70
2021/06/29 07:17:40;;;;;;;9.38;3.72;;;;;;;;;;5053180;28;20120;-71
2021/06/29 07:20:08;;;;;;;11.52;4.57;;;;;;;;;;5083605;28;20488;-71
2021/06/29 07:22:35;;;;;;;12.90;3.63;;;;;;;;;;5070253;28;20041;-71
2021/06/29 07:25:04;;;;;;;10.68;4.03;;;;;;;;;;5055665;28;20459;-71
2021/06/29 07:27:31;;;;;;;15.60;4.00;;;;;;;;;;5077163;28;20448;-71
2021/06/29 07:29:59;;;;;;;13.65;3.35;;;;;;;;;;5056769;28;20029;-71
2021/06/29 07:32:26;;;;;;;7.43;2.55;;;;;;;;;;5073941;28;20025;-71
2021/06/29 07:34:53;;;;;;;4.70;2.25;;;;;;;;;;5063528;28;20063;-71
2021/06/29 07:37:20;;;;;;;11.50;3.50;;;;;;;;;;5077128;28;20063;-71
2021/06/29 07:39:48;;;;;;;10.57;4.20;;;;;;;;;;5078445;28;20063;-72
2021/06/29 07:42:15;;;;;;;11.68;3.75;;;;;;;;;;5064127;28;20147;-71
2021/06/29 07:44:42;;;;;;;11.70;3.97;;;;;;;;;;5072800;28;20048;-72
2021/06/29 07:47:09;;;;;;;10.07;3.45;;;;;;;;;;5065931;28;20028;-71
2021/06/29 07:49:36;;;;;;;8.95;2.78;;;;;;;;;;5075879;28;20390;-73
2021/06/29 07:52:04;;;;;;;10.02;3.70;;;;;;;;;;5055378;28;20028;-72
2021/06/29 07:54:31;;;;;;;7.55;3.53;;;;;;;;;;5081887;28;20029;-72
2021/06/29 07:56:58;;;;;;;8.10;2.90;;;;;;;;;;5103718;28;20037;-70
2021/06/29 07:59:27;;;;;;;8.15;3.13;;;;;;;;;;5066174;28;20051;-71
2021/06/29 08:01:54;;;;;;;10.50;3.30;;;;;;;;;;5075018;28;20044;-70
2021/06/29 08:04:21;;;;;;;5.35;2.15;;;;;;;;;;5059657;28;20036;-70
2021/06/29 08:06:48;;;;;;;10.88;3.40;;;;;;;;;;5073267;28;20527;-70
2021/06/29 08:09:16;;;;;;;6.88;3.17;;;;;;;;;;5055107;28;20048;-73
2021/06/29 08:11:43;;;;;;;13.68;4.72;;;;;;;;;;5075792;28;20032;-70
2021/06/29 08:14:10;;;;;;;12.80;4.80;;;;;;;;;;5060707;28;20036;-69
2021/06/29 08:16:37;;;;;;;10.32;4.75;;;;;;;;;;5062425;28;20040;-69
2021/06/29 08:19:04;;;;;;;9.10;4.50;;;;;;;;;;5062755;28;20036;-69
2021/06/29 08:21:31;;;;;;;13.10;5.70;;;;;;;;;;5093021;28;20051;-70
2021/06/29 08:23:59;;;;;;;11.15;5.00;;;;;;;;;;5083136;28;20033;-70
2021/06/29 08:26:26;;;;;;;13.35;6.93;;;;;;;;;;5081271;28;20123;-70
2021/06/29 08:28:53;;;;;;;11.32;6.38;;;;;;;;;;5057342;28;20038;-71
2021/06/29 08:31:21;;;;;;;13.18;4.90;;;;;;;;;;5054585;28;20450;-71
2021/06/29 08:33:49;;;;;;;14.10;5.22;;;;;;;;;;5061295;28;20068;-71
2021/06/29 08:36:17;;;;;;;12.52;5.40;;;;;;;;;;5088093;28;20036;-70
2021/06/29 08:38:45;;;;;;;11.00;4.20;;;;;;;;;;5054388;28;20040;-69
2021/06/29 08:41:12;;;;;;;18.30;5.03;;;;;;;;;;5068847;28;20032;-69
2021/06/29 08:43:40;;;;;;;11.88;4.93;;;;;;;;;;5051702;28;20519;-70
2021/06/29 08:46:08;;;;;;;8.88;5.03;;;;;;;;;;5072485;28;20021;-70
2021/06/29 08:48:35;;;;;;;10.90;5.05;;;;;;;;;;5081979;28;20040;-70
2021/06/29 08:51:06;;;;;;;11.95;6.13;;;;;;;;;;5092279;28;20059;-70
2021/06/29 08:53:34;;;;;;;11.60;6.10;;;;;;;;;;5092545;28;20025;-70
2021/06/29 08:56:01;;;;;;;15.07;5.93;;;;;;;;;;5091638;28;20043;-70
2021/06/29 08:58:31;;;;;;;12.57;5.80;;;;;;;;;;5088237;28;20043;-71
2021/06/29 09:00:58;;;;;;;12.70;5.68;;;;;;;;;;5070658;28;20040;-70
2021/06/29 09:03:26;;;;;;;14.63;7.10;;;;;;;;;;5054890;28;20490;-70
2021/06/29 09:05:54;;;;;;;14.45;6.85;;;;;;;;;;5053956;28;20047;-70
2021/06/29 09:08:22;;;;;;;17.38;8.43;;;;;;;;;;5072159;28;20431;-69
2021/06/29 09:11:12;;;;;;;29.02;22.52;;;;;;;;;;5072946;28;20103;-69
2021/06/29 09:13:40;;;;;;;38.95;28.40;;;;;;;;;;5054191;28;20165;-71
2021/06/29 09:16:08;;;;;;;28.95;20.63;;;;;;;;;;5072029;28;20385;-70
2021/06/29 09:18:36;;;;;;;31.25;18.88;;;;;;;;;;5089782;28;20036;-69
2021/06/29 09:21:08;;;;;;;27.13;13.60;;;;;;;;;;5068394;28;20043;-69
2021/06/29 09:23:36;;;;;;;20.35;12.32;;;;;;;;;;5058113;28;20094;-69
2021/06/29 09:26:10;;;;;;;14.20;8.93;;;;;;;;;;5069680;28;20128;-69
2021/06/29 09:28:48;;;;;;;26.52;15.05;;;;;;;;;;5070818;28;20043;-70
2021/06/29 09:31:16;;;;;;;26.10;15.40;;;;;;;;;;5060358;28;20120;-70
2021/06/29 09:33:45;;;;;;;27.83;16.10;;;;;;;;;;5082709;28;20039;-71
2021/06/29 09:36:17;;;;;;;23.38;15.45;;;;;;;;;;5069762;28;20036;-70
2021/06/29 09:38:45;;;;;;;32.25;18.42;;;;;;;;;;5053970;28;20396;-70
2021/06/29 09:41:16;;;;;;;38.55;20.77;;;;;;;;;;5074932;28;20428;-70
2021/06/29 09:43:45;;;;;;;29.27;16.33;;;;;;;;;;5075113;28;20032;-70
2021/06/29 09:46:16;;;;;;;15.32;10.80;;;;;;;;;;5075047;28;20036;-71
2021/06/29 09:48:54;;;;;;;16.98;9.20;;;;;;;;;;5067003;28;20059;-70
2021/06/29 09:51:40;;;;;;;15.82;7.82;;;;;;;;;;5081393;28;20474;-70
2021/06/29 09:54:09;;;;;;;14.15;6.85;;;;;;;;;;5073941;28;20047;-70
2021/06/29 09:56:39;;;;;;;19.17;8.07;;;;;;;;;;5089106;28;20036;-70
2021/06/29 09:59:12;;;;;;;14.60;7.97;;;;;;;;;;5053404;28;20060;-70
2021/06/29 10:01:39;;;;;;;17.33;8.57;;;;;;;;;;5053541;28;20385;-70
2021/06/29 10:04:06;;;;;;;20.02;9.35;;;;;;;;;;5057062;28;20039;-69
2021/06/29 10:06:35;;;;;;;16.20;8.80;;;;;;;;;;5074328;28;20130;-69
2021/06/29 10:09:20;;;;;;;21.73;10.63;;;;;;;;;;5053173;28;20032;-69
2021/06/29 10:11:54;;;;;;;21.35;9.82;;;;;;;;;;5051465;28;20115;-69
2021/06/29 10:14:24;;;;;;;20.97;9.37;;;;;;;;;;5053954;28;20043;-69
2021/06/29 10:16:55;;;;;;;14.00;9.68;;;;;;;;;;5053253;28;20354;-69
2021/06/29 10:19:28;;;;;;;20.40;10.43;;;;;;;;;;5084128;28;20424;-69
2021/06/29 10:21:56;;;;;;;16.77;10.07;;;;;;;;;;5086400;28;20090;-68
2021/06/29 10:24:25;;;;;;;21.20;10.80;;;;;;;;;;5069378;28;20035;-69
2021/06/29 10:26:55;;;;;;;17.08;9.88;;;;;;;;;;5075433;28;20028;-69
2021/06/29 10:29:23;;;;;;;19.08;9.60;;;;;;;;;;5063995;28;20040;-69
2021/06/29 10:31:51;;;;;;;16.75;9.95;;;;;;;;;;5040320;28;20087;-69
2021/06/29 10:34:19;;;;;;;15.82;9.52;;;;;;;;;;5051652;28;20098;-69
2021/06/29 10:36:48;;;;;;;14.27;9.15;;;;;;;;;;5047836;28;20036;-69
2021/06/29 10:39:17;;;;;;;19.65;9.32;;;;;;;;;;5074645;28;20374;-68
2021/06/29 10:41:48;;;;;;;23.13;10.27;;;;;;;;;;5055646;28;20492;-69
2021/06/29 10:44:22;;;;;;;17.90;9.18;;;;;;;;;;5069900;28;20082;-68
2021/06/29 10:46:55;;;;;;;23.67;10.55;;;;;;;;;;5074389;28;20058;-69
2021/06/29 10:49:34;;;;;;;17.27;10.07;;;;;;;;;;5074686;28;20489;-68
2021/06/29 10:52:06;;;;;;;21.58;9.82;;;;;;;;;;5055884;28;20482;-69
2021/06/29 10:54:37;;;;;;;16.80;9.77;;;;;;;;;;5051327;28;20045;-68
2021/06/29 10:57:08;;;;;;;24.08;9.85;;;;;;;;;;5056748;28;20036;-68
2021/06/29 10:59:39;;;;;;;18.55;9.13;;;;;;;;;;5074130;28;20039;-68
2021/06/29 11:02:06;;;;;;;22.08;11.02;;;;;;;;;;5055854;28;20048;-69
2021/06/29 11:04:49;;;;;;;21.20;10.88;;;;;;;;;;5062761;28;20036;-69
2021/06/29 11:07:28;;;;;;;26.10;13.38;;;;;;;;;;5035530;28;20036;-68
2021/06/29 11:09:56;;;;;;;27.55;13.65;;;;;;;;;;5048109;28;20036;-68
2021/06/29 11:12:31;;;;;;;25.48;12.90;;;;;;;;;;5060406;28;20039;-69
2021/06/29 11:14:57;;;;;;;;;;;;;;;;;;5063538;28;20127;-69
2021/06/29 11:17:44;;;;;;;27.45;15.55;;;;;;;;;;5094127;28;19904;-69
2021/06/29 11:20:13;;;;;;;29.02;17.98;;;;;;;;;;5069940;28;20542;-69
2021/06/29 11:22:52;;;;;;;32.38;20.02;;;;;;;;;;5064047;28;20413;-70
2021/06/29 11:25:32;;;;;;;27.38;17.38;;;;;;;;;;5084096;28;20039;-69
2021/06/29 11:28:02;;;;;;;33.70;17.40;;;;;;;;;;5062550;28;20037;-69
2021/06/29 11:30:48;;;;;;;29.33;16.45;;;;;;;;;;5084411;28;20037;-70
2021/06/29 11:33:30;;;;;;;31.60;17.80;;;;;;;;;;5056967;28;20044;-69
2021/06/29 11:35:58;;;;;;;39.58;18.75;;;;;;;;;;5058624;28;20146;-69
2021/06/29 11:38:36;;;;;;;28.70;19.05;;;;;;;;;;5077217;28;20033;-69
2021/06/29 11:41:38;;;;;;;29.55;20.25;;;;;;;;;;5080633;28;20044;-69
2021/06/29 11:44:08;;;;;;;34.45;19.38;;;;;;;;;;4991809;28;20130;-69
2021/06/29 11:46:50;;;;;;;27.67;18.15;;;;;;;;;;5067933;28;20503;-69
2021/06/29 11:49:28;;;;;;;36.85;17.73;;;;;;;;;;5069373;28;20623;-69
2021/06/29 11:52:12;;;;;;;27.75;15.63;;;;;;;;;;5061843;28;20392;-68
2021/06/29 11:54:56;;;;;;;26.20;15.00;;;;;;;;;;5069797;28;20124;-72
2021/06/29 11:57:28;;;;;;;27.67;16.23;;;;;;;;;;5056630;28;20082;-70
2021/06/29 11:59:56;;;;;;;25.90;15.95;;;;;;;;;;5083020;28;20030;-71
2021/06/29 12:02:24;;;;;;;23.13;14.90;;;;;;;;;;5064529;28;20036;-71
2021/06/29 12:05:16;;;;;;;27.42;17.08;;;;;;;;;;5086157;28;20494;-71
2021/06/29 12:07:43;;;;;;;28.05;16.83;;;;;;;;;;5066189;28;20071;-72
2021/06/29 12:10:12;;;;;;;36.35;17.90;;;;;;;;;;5054846;28;20489;-71
2021/06/29 12:12:40;;;;;;;30.92;15.45;;;;;;;;;;5056509;28;20036;-71
2021/06/29 12:15:11;;;;;;;26.75;15.43;;;;;;;;;;5080877;28;20032;-71
2021/06/29 12:17:43;;;;;;;30.70;15.95;;;;;;;;;;5062908;28;20119;-69
2021/06/29 12:20:13;;;;;;;31.67;17.65;;;;;;;;;;5080660;28;20037;-69
2021/06/29 12:22:41;;;;;;;30.55;16.45;;;;;;;;;;5092429;28;20036;-69
2021/06/29 12:25:10;;;;;;;29.23;16.80;;;;;;;;;;5061478;28;20441;-70
2021/06/29 12:27:47;;;;;;;31.45;16.73;;;;;;;;;;5057872;28;20070;-69
2021/06/29 12:30:19;;;;;;;29.17;15.52;;;;;;;;;;5057518;28;20079;-69
2021/06/29 12:32:46;;;;;;;23.33;14.85;;;;;;;;;;5084997;28;20089;-69
2021/06/29 12:35:13;;;;;;;29.88;14.70;;;;;;;;;;5087330;28;20036;-71
2021/06/29 12:37:57;;;;;;;27.33;14.82;;;;;;;;;;5087306;28;20040;-70
2021/06/29 12:40:25;;;;;;;24.97;14.90;;;;;;;;;;5068921;28;20024;-70
2021/06/29 12:42:53;;;;;;;27.15;14.52;;;;;;;;;;5085356;28;20123;-69
2021/06/29 12:45:20;;;;;;;24.92;14.93;;;;;;;;;;5072788;28;20044;-68
2021/06/29 12:47:48;;;;;;;25.63;17.23;;;;;;;;;;5080461;28;20048;-68
2021/06/29 12:50:15;;;;;;;24.15;15.45;;;;;;;;;;5067300;28;20028;-68
2021/06/29 12:52:43;;;;;;;26.63;16.05;;;;;;;;;;5051933;28;20044;-68
2021/06/29 12:55:13;;;;;;;24.70;14.45;;;;;;;;;;5073517;28;20048;-68
2021/06/29 12:57:40;;;;;;;26.23;14.18;;;;;;;;;;5077664;28;20032;-68
2021/06/29 13:00:09;;;;;;;26.05;14.00;;;;;;;;;;5072477;28;20079;-69
2021/06/29 13:02:42;;;;;;;25.10;13.43;;;;;;;;;;5089803;28;20060;-69
2021/06/29 13:05:30;;;;;;;29.35;15.40;;;;;;;;;;5073080;28;20043;-69
2021/06/29 13:08:09;;;;;;;30.23;14.82;;;;;;;;;;5078995;28;20032;-69
2021/06/29 13:10:36;;;;;;;27.33;16.15;;;;;;;;;;5080944;28;20185;-69
2021/06/29 13:13:23;;;;;;;26.88;14.57;;;;;;;;;;5080318;28;20484;-69
2021/06/29 13:15:51;;;;;;;23.83;15.05;;;;;;;;;;5082404;28;20079;-69
2021/06/29 13:18:35;;;;;;;32.13;17.95;;;;;;;;;;5086256;28;20024;-69
2021/06/29 13:21:18;;;;;;;24.48;16.33;;;;;;;;;;5080155;28;20036;-69
2021/06/29 13:24:03;;;;;;;31.15;16.92;;;;;;;;;;5071373;28;20032;-68
2021/06/29 13:26:30;;;;;;;24.00;15.85;;;;;;;;;;5059714;28;20077;-69
2021/06/29 13:28:59;;;;;;;26.55;17.60;;;;;;;;;;5080614;28;20532;-69
2021/06/29 13:31:37;;;;;;;30.23;17.58;;;;;;;;;;5050208;28;20039;-69
2021/06/29 13:34:04;;;;;;;21.15;15.80;;;;;;;;;;5081497;28;20029;-69
2021/06/29 13:36:31;;;;;;;22.52;16.67;;;;;;;;;;5083618;28;20052;-69
2021/06/29 13:38:59;;;;;;;28.23;15.82;;;;;;;;;;5080812;28;20638;-69
2021/06/29 13:41:36;;;;;;;22.42;14.70;;;;;;;;;;5078271;28;20090;-69
2021/06/29 13:44:13;;;;;;;23.85;15.05;;;;;;;;;;5089084;28;20032;-69
2021/06/29 13:46:41;;;;;;;20.95;15.27;;;;;;;;;;5071714;28;20039;-69
2021/06/29 13:49:15;;;;;;;24.58;15.00;;;;;;;;;;5063689;28;20114;-69
2021/06/29 13:51:42;;;;;;;27.73;15.80;;;;;;;;;;5065281;28;20047;-69
2021/06/29 13:54:23;;;;;;;24.70;15.18;;;;;;;;;;5073040;28;20028;-69
2021/06/29 13:56:51;;;;;;;25.10;16.02;;;;;;;;;;5055791;28;20102;-69
2021/06/29 13:59:36;;;;;;;23.65;14.73;;;;;;;;;;5076290;28;20063;-70
2021/06/29 14:02:03;;;;;;;25.65;16.02;;;;;;;;;;5076279;28;20111;-70
2021/06/29 14:04:30;;;;;;;24.88;15.50;;;;;;;;;;5077274;28;20035;-70
2021/06/29 14:07:17;;;;;;;23.02;15.02;;;;;;;;;;5068730;28;20037;-70
2021/06/29 14:09:45;;;;;;;26.30;14.93;;;;;;;;;;5080115;28;20039;-70
2021/06/29 14:12:25;;;;;;;22.60;15.48;;;;;;;;;;5095328;28;20063;-70
2021/06/29 14:15:04;;;;;;;30.63;17.55;;;;;;;;;;5063636;28;20078;-70
2021/06/29 14:17:32;;;;;;;26.88;17.05;;;;;;;;;;5087061;28;20028;-70
2021/06/29 14:19:59;;;;;;;27.67;16.83;;;;;;;;;;5074781;28;20468;-70
2021/06/29 14:22:26;;;;;;;27.27;17.05;;;;;;;;;;5075105;28;20037;-70
2021/06/29 14:24:53;;;;;;;30.45;17.83;;;;;;;;;;5088824;28;20413;-70
2021/06/29 14:27:21;;;;;;;28.67;16.58;;;;;;;;;;5077230;28;20020;-70
2021/06/29 14:29:48;;;;;;;31.48;18.25;;;;;;;;;;5092752;28;20119;-70
2021/06/29 14:32:15;;;;;;;24.40;17.35;;;;;;;;;;5074651;28;20447;-70
2021/06/29 14:34:42;;;;;;;33.08;17.90;;;;;;;;;;5056514;28;20386;-70
2021/06/29 14:37:09;;;;;;;26.73;16.70;;;;;;;;;;5079332;28;20025;-70
2021/06/29 14:39:36;;;;;;;26.67;16.05;;;;;;;;;;5081161;28;20059;-70
2021/06/29 14:42:03;;;;;;;30.35;17.48;;;;;;;;;;5086329;28;20039;-70
2021/06/29 14:44:31;;;;;;;28.05;16.17;;;;;;;;;;5076862;28;20059;-70
2021/06/29 14:46:58;;;;;;;24.30;15.80;;;;;;;;;;5083956;28;20472;-69